createdAt,value
2018-10-02T00:00:25.954Z,71.12
2018-10-02T00:01:06.397Z,71.18
2018-10-02T00:01:46.896Z,71.12
2018-10-02T00:02:27.418Z,71.21
2018-10-02T00:03:08.277Z,70.98
2018-10-02T00:03:48.884Z,71.75
2018-10-02T00:04:29.237Z,71.69
2018-10-02T00:05:09.671Z,71.46
2018-10-02T00:05:49.995Z,72.07
2018-10-02T00:06:30.511Z,71.02
2018-10-02T00:07:10.806Z,71.21
2018-10-02T00:07:51.384Z,71.12
2018-10-02T00:08:33.904Z,71.31
2018-10-02T00:09:14.167Z,71.12
2018-10-02T00:09:56.612Z,71.31
2018-10-02T00:10:39.129Z,71.88
2018-10-02T00:11:23.734Z,71.88
2018-10-02T00:12:04.201Z,71.5
2018-10-02T00:12:44.660Z,71.78
2018-10-02T00:13:26.793Z,72.23
2018-10-02T00:27:13.976Z,75.09
2018-10-02T00:49:07.515Z,75.62
2018-10-02T00:51:29.976Z,75.95
2018-10-02T00:52:59.313Z,75.53
2018-10-02T00:53:39.942Z,75.43
2018-10-02T00:54:20.384Z,75.91
2018-10-02T01:01:33.643Z,76.52
2018-10-02T01:02:14.185Z,76.33
2018-10-02T01:02:59.441Z,75.76
2018-10-02T01:03:41.097Z,75.85
2018-10-02T01:04:21.567Z,76.23
2018-10-02T01:05:03.608Z,76.33
2018-10-02T01:05:47.745Z,76.14
2018-10-02T01:06:31.614Z,75.57
2018-10-02T01:07:10.837Z,76.23
2018-10-02T01:07:53.239Z,75.95
2018-10-02T01:08:34.453Z,76.52
2018-10-02T01:09:15.560Z,75.66
2018-10-02T01:15:41.664Z,75.28
2018-10-02T01:16:24.601Z,75.34
2018-10-02T01:17:05.358Z,75.37
2018-10-02T01:17:56.776Z,75.81
2018-10-02T01:18:39.053Z,76.39
2018-10-02T01:19:22.057Z,76.39
2018-10-02T01:27:16.091Z,76.96
2018-10-02T01:28:48.192Z,76.86
2018-10-02T01:29:35.854Z,77.06
2018-10-02T01:30:13.861Z,76.39
2018-10-02T01:30:56.267Z,76.77
2018-10-02T01:31:37.913Z,76.39
2018-10-02T01:32:25.082Z,76.39
2018-10-02T01:33:06.605Z,76.57
2018-10-02T01:38:23.803Z,77.44
2018-10-02T01:39:04.467Z,77.34
2018-10-02T01:39:44.784Z,77.44
2018-10-02T01:40:27.736Z,77.15
2018-10-02T01:41:06.154Z,77.44
2018-10-02T01:41:46.960Z,77.25
2018-10-02T01:42:27.604Z,77.25
2018-10-02T01:43:07.781Z,77.15
2018-10-02T01:43:48.613Z,77.34
2018-10-02T01:44:28.991Z,77.34
2018-10-02T01:45:10.538Z,77.72
2018-10-02T01:45:50.886Z,77.44
2018-10-02T01:46:31.390Z,77.53
2018-10-02T01:47:14.381Z,77.62
2018-10-02T01:47:55.120Z,77.72
2018-10-02T01:48:35.451Z,77.34
2018-10-02T01:49:16.307Z,77.72
2018-10-02T01:49:56.643Z,78.2
2018-10-02T01:50:38.661Z,77.82
2018-10-02T01:51:22.628Z,77.15
2018-10-02T01:52:03.030Z,77.62
2018-10-02T01:52:45.531Z,77.62
2018-10-02T01:57:40.076Z,76.96
2018-10-02T01:58:25.445Z,76.57
2018-10-02T01:59:05.740Z,77.15
2018-10-02T01:59:46.788Z,76.48
2018-10-02T02:00:27.138Z,77.06
2018-10-02T02:01:07.758Z,76.67
2018-10-02T02:01:49.903Z,76.39
2018-10-02T02:02:30.392Z,76.39
2018-10-02T02:03:10.908Z,76.77
2018-10-02T02:03:52.236Z,77.15
2018-10-02T02:04:32.184Z,77.34
2018-10-02T02:05:12.629Z,77.82
2018-10-02T02:05:54.648Z,77.53
2018-10-02T02:06:34.943Z,77.72
2018-10-02T02:07:15.465Z,77.72
2018-10-02T02:07:58.095Z,77.25
2018-10-02T02:08:37.263Z,77.25
2018-10-02T02:09:17.710Z,77.06
2018-10-02T02:09:58.615Z,77.34
2018-10-02T02:10:39.152Z,77.82
2018-10-02T02:11:19.418Z,77.72
2018-10-02T02:13:16.777Z,77.06
2018-10-02T02:16:49.251Z,76.77
2018-10-02T02:19:17.236Z,76.77
2018-10-02T02:19:58.627Z,76.86
2018-10-02T02:20:39.141Z,76.29
2018-10-02T02:21:19.515Z,76.57
2018-10-02T02:21:59.931Z,76.86
2018-10-02T02:22:40.424Z,76.77
2018-10-02T02:23:20.799Z,76.1
2018-10-02T02:24:01.451Z,76.77
2018-10-02T02:24:42.078Z,76.39
2018-10-02T02:25:22.582Z,76.77
2018-10-02T02:26:08.236Z,76.48
2018-10-02T02:26:48.893Z,76.29
2018-10-02T02:27:29.405Z,77.15
2018-10-02T02:28:12.267Z,77.44
2018-10-02T02:28:54.079Z,77.25
2018-10-02T02:29:34.067Z,77.34
2018-10-02T02:30:14.623Z,77.82
2018-10-02T02:30:54.868Z,77.53
2018-10-02T02:31:35.538Z,76.96
2018-10-02T02:32:16.015Z,77.34
2018-10-02T02:32:56.556Z,77.44
2018-10-02T02:33:38.334Z,77.25
2018-10-02T02:34:21.009Z,77.44
2018-10-02T02:35:00.117Z,77.34
2018-10-02T02:35:40.512Z,77.25
2018-10-02T02:36:20.952Z,77.72
2018-10-02T02:37:01.486Z,77.44
2018-10-02T02:37:44.807Z,77.72
2018-10-02T02:38:24.264Z,77.72
2018-10-02T02:39:04.700Z,77.53
2018-10-02T02:39:45.139Z,77.82
2018-10-02T02:40:26.415Z,77.72
2018-10-02T02:41:07.636Z,77.06
2018-10-02T02:41:48.707Z,76.86
2018-10-02T02:42:29.201Z,76.39
2018-10-02T02:43:09.673Z,76.77
2018-10-02T02:43:53.214Z,76.77
2018-10-02T02:44:33.554Z,76.39
2018-10-02T02:45:15.053Z,76.29
2018-10-02T02:45:55.148Z,76.1
2018-10-02T02:46:35.541Z,76.2
2018-10-02T02:47:16.049Z,76.57
2018-10-02T02:47:56.736Z,76.2
2018-10-02T02:48:41.401Z,76.57
2018-10-02T02:49:21.331Z,76.48
2018-10-02T02:50:01.747Z,76.1
2018-10-02T02:50:42.256Z,76.39
2018-10-02T02:51:22.736Z,75.81
2018-10-02T02:52:03.438Z,76.01
2018-10-02T02:52:44.379Z,75.81
2018-10-02T02:53:24.967Z,76.1
2018-10-02T02:54:05.268Z,76.48
2018-10-02T02:54:45.635Z,76.1
2018-10-02T02:55:26.066Z,76.48
2018-10-02T02:56:06.945Z,76.39
2018-10-02T02:56:48.104Z,76.57
2018-10-02T02:57:28.594Z,75.81
2018-10-02T02:58:09.032Z,75.34
2018-10-02T02:58:49.889Z,76.1
2018-10-02T02:59:30.400Z,75.91
2018-10-02T03:00:10.985Z,75.72
2018-10-02T03:00:51.532Z,75.91
2018-10-02T03:01:31.964Z,76.29
2018-10-02T03:02:12.249Z,76.1
2018-10-02T03:02:53.209Z,76.39
2018-10-02T03:03:33.432Z,76.39
2018-10-02T03:04:13.830Z,76.57
2018-10-02T03:04:54.453Z,76.1
2018-10-02T03:05:35.084Z,76.2
2018-10-02T03:06:18.580Z,76.39
2018-10-02T03:06:58.948Z,76.39
2018-10-02T03:07:39.682Z,76.48
2018-10-02T03:08:19.864Z,76.29
2018-10-02T03:09:00.855Z,77.15
2018-10-02T03:09:41.240Z,76.1
2018-10-02T03:10:21.709Z,76.39
2018-10-02T03:11:02.461Z,76.39
2018-10-02T03:11:43.147Z,76.86
2018-10-02T03:12:23.506Z,76.57
2018-10-02T03:13:03.934Z,76.48
2018-10-02T03:13:44.741Z,76.48
2018-10-02T03:14:24.988Z,76.39
2018-10-02T03:15:05.320Z,76.29
2018-10-02T03:15:45.748Z,75.72
2018-10-02T03:16:26.149Z,76.29
2018-10-02T03:17:06.763Z,76.2
2018-10-02T03:17:47.247Z,76.2
2018-10-02T03:18:27.731Z,76.77
2018-10-02T03:19:08.095Z,76.86
2018-10-02T03:19:48.717Z,77.25
2018-10-02T03:20:29.192Z,77.34
2018-10-02T03:21:09.627Z,76.86
2018-10-02T03:21:50.237Z,77.06
2018-10-02T03:22:30.790Z,76.39
2018-10-02T03:23:11.440Z,75.91
2018-10-02T03:23:51.651Z,75.81
2018-10-02T03:24:32.216Z,76.39
2018-10-02T03:25:12.992Z,76.48
2018-10-02T03:25:53.592Z,76.96
2018-10-02T03:26:34.389Z,76.29
2018-10-02T03:27:14.814Z,76.77
2018-10-02T03:27:55.053Z,77.06
2018-10-02T03:28:35.436Z,75.81
2018-10-02T03:29:16.232Z,75.24
2018-10-02T03:29:56.668Z,76.48
2018-10-02T03:30:37.069Z,76.48
2018-10-02T03:31:17.742Z,76.67
2018-10-02T03:31:57.996Z,76.57
2018-10-02T03:32:38.345Z,76.2
2018-10-02T03:33:21.251Z,76.2
2018-10-02T03:34:01.589Z,76.2
2018-10-02T03:34:42.101Z,75.53
2018-10-02T03:35:22.413Z,75.05
2018-10-02T03:36:02.917Z,76.01
2018-10-02T03:36:44.051Z,76.1
2018-10-02T03:37:24.705Z,75.24
2018-10-02T03:38:05.407Z,75.05
2018-10-02T03:38:45.750Z,74.57
2018-10-02T03:39:26.284Z,75.15
2018-10-02T03:40:06.809Z,75.15
2018-10-02T03:40:47.156Z,75.91
2018-10-02T03:41:27.999Z,74.57
2018-10-02T03:42:08.574Z,74.67
2018-10-02T03:42:48.847Z,75.15
2018-10-02T03:43:31.250Z,74.86
2018-10-02T03:44:09.940Z,74.48
2018-10-02T03:44:50.539Z,73.91
2018-10-02T03:45:31.117Z,74.57
2018-10-02T03:46:11.664Z,74.86
2018-10-02T03:46:51.912Z,74.9
2018-10-02T03:47:32.703Z,74.61
2018-10-02T03:48:12.824Z,73.62
2018-10-02T03:48:53.402Z,74.1
2018-10-02T03:49:33.907Z,74.38
2018-10-02T03:50:14.236Z,75.28
2018-10-02T03:50:54.818Z,75.34
2018-10-02T03:51:35.261Z,74.67
2018-10-02T03:52:15.808Z,74.71
2018-10-02T03:52:56.580Z,74.23
2018-10-02T03:53:36.782Z,74.61
2018-10-02T03:54:17.200Z,73.75
2018-10-02T03:54:57.742Z,73.43
2018-10-02T03:55:38.113Z,74.01
2018-10-02T03:56:18.604Z,74.57
2018-10-02T03:56:59.499Z,74.1
2018-10-02T03:57:39.636Z,74.67
2018-10-02T03:58:20.273Z,75.05
2018-10-02T03:59:00.716Z,75.15
2018-10-02T03:59:41.374Z,75.91
2018-10-02T04:00:22.194Z,75.24
2018-10-02T04:01:02.437Z,76.48
2018-10-02T04:01:42.792Z,76.57
2018-10-02T04:02:23.678Z,76.39
2018-10-02T04:03:04.358Z,75.62
2018-10-02T04:03:45.122Z,75.24
2018-10-02T04:04:25.563Z,75.05
2018-10-02T04:05:05.942Z,74.32
2018-10-02T04:05:46.771Z,74.38
2018-10-02T04:06:27.209Z,74.48
2018-10-02T04:07:07.787Z,74.61
2018-10-02T04:07:48.750Z,74.38
2018-10-02T04:08:29.473Z,74.48
2018-10-02T04:09:09.926Z,75.05
2018-10-02T04:09:52.490Z,74.29
2018-10-02T04:10:32.779Z,74.19
2018-10-02T04:11:13.432Z,74.38
2018-10-02T04:11:55.301Z,74.67
2018-10-02T04:12:37.088Z,74.48
2018-10-02T04:13:22.182Z,74.48
2018-10-02T04:14:02.684Z,74.96
2018-10-02T04:14:43.147Z,74.48
2018-10-02T04:15:23.704Z,74.57
2018-10-02T04:16:04.655Z,74.1
2018-10-02T04:16:45.498Z,75.43
2018-10-02T04:17:25.762Z,75.05
2018-10-02T04:18:08.686Z,74.19
2018-10-02T04:18:49.202Z,73.62
2018-10-02T04:19:29.565Z,74.01
2018-10-02T04:20:11.364Z,74.96
2018-10-02T04:20:51.978Z,74.48
2018-10-02T04:21:32.704Z,74.96
2018-10-02T04:22:13.489Z,75.34
2018-10-02T04:22:53.551Z,74.48
2018-10-02T04:23:34.212Z,74.48
2018-10-02T04:24:15.229Z,73.52
2018-10-02T04:24:56.476Z,74.48
2018-10-02T04:25:37.083Z,74.57
2018-10-02T05:06:18.935Z,69.46
2018-10-02T05:07:11.416Z,70.89
2018-10-02T05:08:03.997Z,70.32
2018-10-02T05:08:59.265Z,69.08
2018-10-02T05:09:57.445Z,68.6
2018-10-02T05:10:50.293Z,68.41
2018-10-02T05:11:42.283Z,68.03
2018-10-02T05:12:36.981Z,69.93
2018-10-02T05:13:31.396Z,70.32
2018-10-02T05:15:37.247Z,68.88
2018-10-02T05:16:30.679Z,68.95
2018-10-02T05:17:22.734Z,69.17
2018-10-02T05:18:21.768Z,68.7
2018-10-02T05:19:19.335Z,68.03
2018-10-02T05:20:13.894Z,68.03
2018-10-02T05:21:08.668Z,68.98
2018-10-02T05:22:05.130Z,66.78
2018-10-02T05:22:59.435Z,67.36
2018-10-02T05:23:52.315Z,67.46
2018-10-02T05:24:44.219Z,68.35
2018-10-02T05:25:39.590Z,66.25
2018-10-02T05:26:35.534Z,67.01
2018-10-02T05:27:29.714Z,66.44
2018-10-02T05:28:25.612Z,66.06
2018-10-02T05:29:20.747Z,65.87
2018-10-02T05:31:07.592Z,65.01
2018-10-02T05:31:48.001Z,64.81
2018-10-02T05:32:28.845Z,65.48
2018-10-02T05:33:09.253Z,66.44
2018-10-02T05:33:53.751Z,65.87
2018-10-02T05:35:49.886Z,64.81
2018-10-02T05:36:43.544Z,64.81
2018-10-02T05:37:36.390Z,64.81
2018-10-02T05:38:30.669Z,65.96
2018-10-02T05:39:25.427Z,65.1
2018-10-02T05:40:18.867Z,64.91
2018-10-02T05:41:26.924Z,64.91
2018-10-02T05:42:36.296Z,65.48
2018-10-02T05:43:34.333Z,65.58
2018-10-02T05:44:44.391Z,65.42
2018-10-02T05:45:38.023Z,66
2018-10-02T05:46:54.578Z,64.85
2018-10-02T05:51:28.046Z,65.14
2018-10-02T05:55:03.131Z,64.18
2018-10-02T05:55:42.414Z,64.75
2018-10-02T05:56:22.894Z,64.94
2018-10-02T05:57:03.206Z,64.47
2018-10-02T05:57:43.661Z,63.89
2018-10-02T05:58:24.180Z,63.89
2018-10-02T05:59:04.645Z,64.28
2018-10-02T05:59:45.265Z,64.47
2018-10-02T06:00:25.718Z,64.85
2018-10-02T06:01:06.147Z,64.94
2018-10-02T06:01:46.766Z,63.89
2018-10-02T06:02:28.265Z,63.99
2018-10-02T06:03:09.079Z,64.28
2018-10-02T06:03:49.607Z,64.56
2018-10-02T06:04:30.039Z,64.53
2018-10-02T06:05:10.503Z,64.15
2018-10-02T06:05:50.973Z,65.39
2018-10-02T06:06:31.380Z,64.43
2018-10-02T06:07:11.889Z,62.91
2018-10-02T06:07:52.434Z,64.15
2018-10-02T06:08:32.897Z,64.91
2018-10-02T06:09:13.159Z,64.81
2018-10-02T06:09:53.707Z,65.3
2018-10-02T06:10:35.918Z,65.58
2018-10-02T06:11:16.380Z,66.15
2018-10-02T06:11:56.657Z,66.06
2018-10-02T06:12:37.188Z,66.44
2018-10-02T06:13:17.608Z,65.48
2018-10-02T06:13:58.534Z,64.81
2018-10-02T06:14:38.678Z,64.91
2018-10-02T06:15:20.413Z,65.1
2018-10-02T06:16:00.756Z,64.91
2018-10-02T06:16:44.256Z,64.81
2018-10-02T06:17:25.595Z,65.77
2018-10-02T06:18:06.554Z,66.06
2018-10-02T06:18:47.102Z,65.01
2018-10-02T06:19:27.506Z,65.3
2018-10-02T06:20:08.847Z,65.87
2018-10-02T06:20:48.564Z,65.77
2018-10-02T06:21:29.854Z,66.92
2018-10-02T06:22:09.624Z,65.96
2018-10-02T06:22:50.362Z,65.1
2018-10-02T06:23:30.800Z,64.72
2018-10-02T06:24:11.438Z,65.3
2018-10-02T06:24:51.850Z,65.58
2018-10-02T06:25:32.352Z,65.87
2018-10-02T06:26:13.264Z,65.3
2018-10-02T06:26:53.619Z,65.2
2018-10-02T06:27:34.090Z,64.05
2018-10-02T06:28:14.790Z,64.25
2018-10-02T06:28:55.408Z,64.91
2018-10-02T06:29:35.825Z,66.63
2018-10-02T06:30:16.344Z,65.3
2018-10-02T06:30:58.767Z,65.39
2018-10-02T06:31:39.364Z,64.62
2018-10-02T06:32:19.815Z,64.97
2018-10-02T06:33:00.582Z,65.58
2018-10-02T06:33:40.835Z,65.64
2018-10-02T06:34:22.485Z,65.17
2018-10-02T06:35:02.168Z,65.74
2018-10-02T06:35:42.564Z,65.74
2018-10-02T06:36:23.294Z,66.5
2018-10-02T06:37:03.713Z,65.74
2018-10-02T06:37:44.117Z,66.78
2018-10-02T06:38:24.828Z,67.55
2018-10-02T06:39:05.021Z,67.46
2018-10-02T06:39:45.389Z,68.03
2018-10-02T06:40:26.156Z,69.27
2018-10-02T06:41:06.501Z,70.51
2018-10-02T06:41:46.909Z,69.9
2018-10-02T06:42:27.752Z,70.38
2018-10-02T06:43:08.092Z,71.33
2018-10-02T06:43:48.938Z,70.38
2018-10-02T06:44:29.492Z,70.09
2018-10-02T06:45:10.288Z,71.91
2018-10-02T06:45:50.423Z,72.86
2018-10-02T06:46:30.942Z,71.91
2018-10-02T06:47:12.765Z,73.47
2018-10-02T06:47:53.084Z,73.52
2018-10-02T06:48:33.750Z,73.18
2018-10-02T06:49:14.334Z,72.61
2018-10-02T06:49:55.464Z,73.28
2018-10-02T06:50:36.109Z,73.75
2018-10-02T06:51:16.696Z,73.28
2018-10-02T06:51:57.160Z,72.32
2018-10-02T06:52:38.006Z,72.23
2018-10-02T06:53:18.648Z,72.42
2018-10-02T06:53:59.302Z,73.66
2018-10-02T06:54:39.607Z,74.04
2018-10-02T06:55:20.091Z,72.51
2018-10-02T06:56:00.762Z,71.66
2018-10-02T06:56:42.012Z,72.32
2018-10-02T06:57:23.137Z,72.61
2018-10-02T06:58:03.523Z,73.28
2018-10-02T06:58:44.026Z,73.37
2018-10-02T06:59:24.563Z,71.66
2018-10-02T07:00:04.995Z,72.13
2018-10-02T07:00:45.445Z,72.71
2018-10-02T07:01:25.912Z,71.18
2018-10-02T07:02:06.410Z,71.66
2018-10-02T07:02:46.956Z,71.27
2018-10-02T07:03:27.519Z,70.98
2018-10-02T07:04:07.939Z,70.89
2018-10-02T07:04:48.357Z,70.7
2018-10-02T07:05:28.895Z,70.51
2018-10-02T07:06:09.289Z,70.61
2018-10-02T07:06:50.440Z,71.75
2018-10-02T07:07:30.880Z,71.66
2018-10-02T07:08:11.499Z,71.04
2018-10-02T07:08:51.956Z,71.14
2018-10-02T07:09:33.084Z,72.09
2018-10-02T07:10:13.657Z,73.52
2018-10-02T07:10:54.090Z,73.43
2018-10-02T07:11:34.716Z,73.91
2018-10-02T07:12:14.966Z,74.01
2018-10-02T07:12:55.652Z,72.67
2018-10-02T07:13:36.228Z,73.05
2018-10-02T07:14:17.762Z,73.62
2018-10-02T07:14:58.527Z,74.57
2018-10-02T07:15:38.683Z,73.52
2018-10-02T07:16:19.180Z,72.86
2018-10-02T07:16:59.531Z,73.24
2018-10-02T07:17:40.106Z,73.33
2018-10-02T07:18:20.532Z,73.43
2018-10-02T07:19:00.979Z,73.52
2018-10-02T07:19:41.410Z,73.81
2018-10-02T07:20:21.793Z,73.62
2018-10-02T07:21:02.239Z,73.72
2018-10-02T07:21:42.701Z,72.57
2018-10-02T07:22:23.137Z,73.28
2018-10-02T07:23:03.664Z,73.47
2018-10-02T07:23:44.579Z,71.75
2018-10-02T07:24:24.680Z,71.18
2018-10-02T07:25:05.180Z,70.61
2018-10-02T07:25:45.617Z,71.66
2018-10-02T07:26:26.316Z,70.95
2018-10-02T07:27:06.749Z,71.08
2018-10-02T07:27:47.341Z,71.52
2018-10-02T07:28:27.552Z,71.62
2018-10-02T07:29:08.018Z,72.51
2018-10-02T07:29:48.351Z,72.71
2018-10-02T07:30:28.788Z,71.94
2018-10-02T07:31:09.203Z,71.66
2018-10-02T07:31:49.508Z,71.08
2018-10-02T07:32:30.009Z,72.13
2018-10-02T07:33:10.454Z,70.95
2018-10-02T07:33:50.837Z,70.98
2018-10-02T07:34:31.382Z,71.94
2018-10-02T07:35:12.839Z,70.89
2018-10-02T07:35:53.390Z,71.66
2018-10-02T07:36:33.964Z,70.89
2018-10-02T07:37:14.296Z,70.42
2018-10-02T07:37:54.960Z,71.27
2018-10-02T07:38:35.602Z,71.84
2018-10-02T07:39:15.960Z,70.79
2018-10-02T07:39:56.655Z,71.27
2018-10-02T07:40:37.492Z,71.66
2018-10-02T07:41:17.592Z,70.67
2018-10-02T07:41:58.912Z,70.38
2018-10-02T07:42:38.591Z,71.23
2018-10-02T07:43:19.043Z,71.72
2018-10-02T07:43:59.622Z,71.91
2018-10-02T07:44:40.307Z,72.09
2018-10-02T07:45:20.904Z,72.28
2018-10-02T07:46:01.373Z,71.87
2018-10-02T07:46:41.810Z,72.53
2018-10-02T07:47:22.362Z,73.87
2018-10-02T07:48:03.891Z,73.39
2018-10-02T07:48:44.375Z,73.58
2018-10-02T07:49:24.397Z,73.3
2018-10-02T07:50:05.770Z,72.92
2018-10-02T07:50:46.269Z,73.77
2018-10-02T07:51:26.676Z,73.21
2018-10-02T07:52:07.943Z,73.3
2018-10-02T07:52:48.193Z,73.96
2018-10-02T07:53:28.709Z,73.77
2018-10-02T07:54:09.108Z,73.58
2018-10-02T07:54:49.551Z,74.25
2018-10-02T07:55:30.259Z,74.92
2018-10-02T07:56:10.552Z,74.92
2018-10-02T07:56:51.356Z,75.4
2018-10-02T07:57:31.649Z,75.11
2018-10-02T07:58:12.392Z,74.16
2018-10-02T07:58:52.901Z,73.77
2018-10-02T07:59:33.593Z,75.68
2018-10-02T08:00:13.862Z,75.96
2018-10-02T08:00:54.465Z,75.81
2018-10-02T08:01:34.966Z,75.24
2018-10-02T08:02:15.364Z,72.96
2018-10-02T08:02:55.983Z,73.14
2018-10-02T08:03:36.209Z,73.05
2018-10-02T08:04:16.658Z,72.86
2018-10-02T08:04:57.213Z,72.57
2018-10-02T08:05:37.556Z,73.05
2018-10-02T08:06:18.026Z,72.67
2018-10-02T08:06:58.297Z,72.67
2018-10-02T08:07:38.665Z,73.05
2018-10-02T08:08:19.149Z,72.38
2018-10-02T08:08:59.699Z,72.09
2018-10-02T08:09:40.323Z,71.91
2018-10-02T08:10:21.916Z,72.38
2018-10-02T08:11:02.440Z,73.33
2018-10-02T08:11:42.927Z,73.72
2018-10-02T08:12:23.577Z,73.05
2018-10-02T08:13:03.760Z,73.05
2018-10-02T08:13:44.339Z,73.43
2018-10-02T08:14:24.683Z,72.67
2018-10-02T08:15:05.155Z,71.52
2018-10-02T08:15:45.482Z,71.81
2018-10-02T08:16:26.030Z,72.57
2018-10-02T08:17:07.631Z,73.66
2018-10-02T08:17:48.291Z,73.37
2018-10-02T08:18:28.740Z,74.04
2018-10-02T08:19:09.091Z,73.94
2018-10-02T08:19:49.981Z,73.28
2018-10-02T08:20:30.472Z,73.37
2018-10-02T08:21:10.700Z,73.6
2018-10-02T08:21:51.159Z,71.75
2018-10-02T08:22:31.580Z,72.07
2018-10-02T08:23:11.994Z,72.17
2018-10-02T08:23:52.778Z,71.69
2018-10-02T08:24:33.041Z,72.36
2018-10-02T08:25:13.510Z,71.5
2018-10-02T08:25:53.907Z,70.92
2018-10-02T08:26:34.655Z,70.92
2018-10-02T08:27:15.089Z,72.07
2018-10-02T08:27:55.643Z,71.88
2018-10-02T08:28:37.427Z,71.88
2018-10-02T08:29:17.764Z,71.98
2018-10-02T08:29:58.196Z,72.26
2018-10-02T08:30:38.502Z,71.82
2018-10-02T08:31:18.980Z,71.31
2018-10-02T08:31:59.379Z,71.44
2018-10-02T08:32:39.938Z,71.44
2018-10-02T08:33:21.043Z,71.06
2018-10-02T08:34:01.839Z,71.92
2018-10-02T08:34:42.254Z,71.92
2018-10-02T08:35:23.652Z,71.82
2018-10-02T08:36:04.419Z,71.34
2018-10-02T08:36:46.437Z,71.44
2018-10-02T08:37:26.565Z,71.92
2018-10-02T08:38:09.426Z,70.58
2018-10-02T08:38:54.453Z,71.06
2018-10-02T08:39:33.206Z,71.34
2018-10-02T08:40:13.947Z,71.06
2018-10-02T08:40:55.133Z,70.1
2018-10-02T08:41:36.224Z,70.2
2018-10-02T08:42:16.958Z,70.67
2018-10-02T08:42:58.926Z,70.67
2018-10-02T08:43:41.626Z,71.15
2018-10-02T08:44:22.937Z,71
2018-10-02T08:45:03.936Z,71.19
2018-10-02T08:45:44.449Z,71.15
2018-10-02T08:46:24.515Z,71.15
2018-10-02T08:47:05.315Z,71.72
2018-10-02T08:47:45.879Z,71.95
2018-10-02T08:48:26.172Z,71.67
2018-10-02T08:49:07.500Z,71.47
2018-10-02T08:49:47.709Z,71.57
2018-10-02T08:50:28.339Z,71.19
2018-10-02T08:51:08.654Z,71.19
2018-10-02T08:51:49.408Z,71.95
2018-10-02T08:52:29.950Z,71.57
2018-10-02T08:53:10.723Z,71.76
2018-10-02T08:53:50.897Z,72.05
2018-10-02T08:54:31.313Z,71.19
2018-10-02T08:55:11.892Z,71.38
2018-10-02T08:55:52.424Z,71.57
2018-10-02T08:56:33.322Z,72.05
2018-10-02T08:57:14.334Z,72.24
2018-10-02T08:57:56.168Z,72.24
2018-10-02T08:58:37.432Z,71.76
2018-10-02T08:59:18.070Z,71.76
2018-10-02T09:00:01.095Z,71.19
2018-10-02T09:00:41.891Z,71.86
2018-10-02T09:01:23.417Z,71.86
2018-10-02T09:02:05.053Z,72.05
2018-10-02T09:02:46.392Z,72.05
2018-10-02T09:03:26.313Z,71.95
2018-10-02T09:04:07.911Z,70.71
2018-10-02T09:04:48.915Z,71.38
2018-10-02T09:05:28.915Z,71.19
2018-10-02T09:06:09.944Z,71.76
2018-10-02T09:06:51.343Z,71.95
2018-10-02T09:07:32.719Z,71.95
2018-10-02T09:08:14.231Z,71.95
2018-10-02T09:08:55.790Z,71.57
2018-10-02T09:09:35.903Z,71.76
2018-10-02T09:10:19.903Z,72.05
2018-10-02T09:11:01.077Z,72.05
2018-10-02T09:11:48.064Z,71.89
2018-10-02T09:12:28.810Z,71.42
2018-10-02T09:13:10.594Z,70.94
2018-10-02T09:13:50.669Z,71.99
2018-10-02T09:14:32.411Z,71.7
2018-10-02T09:15:12.762Z,71.99
2018-10-02T09:15:54.104Z,70.94
2018-10-02T09:16:35.276Z,70.46
2018-10-02T09:17:17.413Z,71.32
2018-10-02T09:17:59.923Z,71.22
2018-10-02T09:18:42.680Z,71.32
2018-10-02T09:19:23.303Z,72.37
2018-10-02T09:20:03.809Z,72.18
2018-10-02T09:20:45.338Z,71.8
2018-10-02T09:21:27.230Z,71.89
2018-10-02T09:22:06.702Z,71.99
2018-10-02T09:22:48.705Z,71.99
2018-10-02T09:23:29.734Z,72.85
2018-10-02T09:24:11.522Z,72.85
2018-10-02T09:24:51.957Z,73.14
2018-10-02T09:25:32.421Z,73.19
2018-10-02T09:26:13.737Z,73.29
2018-10-02T09:26:54.131Z,73.71
2018-10-02T09:27:35.196Z,74.28
2018-10-02T09:28:15.534Z,74.44
2018-10-02T09:28:55.820Z,75.1
2018-10-02T09:29:36.473Z,73.9
2018-10-02T09:30:17.014Z,74.34
2018-10-02T09:30:57.599Z,75.39
2018-10-02T09:31:38.084Z,76.16
2018-10-02T09:32:19.009Z,75.01
2018-10-02T09:32:59.553Z,74.82
2018-10-02T09:33:40.781Z,75.2
2018-10-02T09:34:21.301Z,75.96
2018-10-02T09:35:01.775Z,75.39
2018-10-02T09:35:42.258Z,75.3
2018-10-02T09:36:23.468Z,77.21
2018-10-02T09:37:03.654Z,77.59
2018-10-02T09:37:44.184Z,76.16
2018-10-02T09:38:25.076Z,79.22
2018-10-02T09:39:05.971Z,79.12
2018-10-02T09:39:47.040Z,77.87
2018-10-02T09:40:27.786Z,77.5
2018-10-02T09:41:08.589Z,78.16
2018-10-02T09:41:48.972Z,79.6
2018-10-02T09:42:29.485Z,79.12
2018-10-02T09:43:11.136Z,79.12
2018-10-02T09:43:51.765Z,79.12
2018-10-02T09:44:32.520Z,79.79
2018-10-02T09:45:13.532Z,80.46
2018-10-02T09:45:54.083Z,79.5
2018-10-02T09:46:34.506Z,79.31
2018-10-02T09:47:15.735Z,79.5
2018-10-02T09:47:57.155Z,79.22
2018-10-02T09:48:37.915Z,79.69
2018-10-02T09:49:18.282Z,80.17
2018-10-02T09:49:59.032Z,80.27
2018-10-02T09:50:39.583Z,81.03
2018-10-02T09:51:20.269Z,80.65
2018-10-02T09:52:00.687Z,81.13
2018-10-02T09:52:41.814Z,81.6
2018-10-02T09:53:22.205Z,82.08
2018-10-02T09:54:04.208Z,81.13
2018-10-02T09:54:47.385Z,80.27
2018-10-02T09:55:28.336Z,80.55
2018-10-02T09:57:19.642Z,81.32
2018-10-02T09:58:04.413Z,80.84
2018-10-02T09:58:47.910Z,80.65
2018-10-02T09:59:28.277Z,81.22
2018-10-02T10:00:08.951Z,81.22
2018-10-02T10:00:49.837Z,81.13
2018-10-02T10:01:30.243Z,80.65
2018-10-02T10:02:10.800Z,81.03
2018-10-02T10:02:51.540Z,80.93
2018-10-02T10:03:32.419Z,82.37
2018-10-02T10:04:13.018Z,81.51
2018-10-02T10:04:54.009Z,82.08
2018-10-02T10:05:34.566Z,82.28
2018-10-02T10:06:15.548Z,81.89
2018-10-02T10:06:56.195Z,82.65
2018-10-02T10:07:37.374Z,83.04
2018-10-02T10:08:19.108Z,82.08
2018-10-02T10:08:58.952Z,81.22
2018-10-02T10:09:39.796Z,81.89
2018-10-02T10:10:21.608Z,81.79
2018-10-02T10:11:01.829Z,81.99
2018-10-02T10:11:43.148Z,81.89
2018-10-02T10:12:23.606Z,82.56
2018-10-02T10:13:04.101Z,82.56
2018-10-02T10:13:44.889Z,82.75
2018-10-02T10:14:29.175Z,82.94
2018-10-02T10:15:09.611Z,82.37
2018-10-02T10:15:50.142Z,82.28
2018-10-02T10:16:30.942Z,82.37
2018-10-02T10:17:14.490Z,81.6
2018-10-02T10:17:55.235Z,82.08
2018-10-02T10:18:36.192Z,81.6
2018-10-02T10:19:16.590Z,81.99
2018-10-02T10:19:57.636Z,83.04
2018-10-02T10:20:38.208Z,82.94
2018-10-02T10:21:18.769Z,83.33
2018-10-02T10:21:59.144Z,83.04
2018-10-02T10:22:39.749Z,83.13
2018-10-02T10:23:20.355Z,83.42
2018-10-02T10:24:01.013Z,83.42
2018-10-02T10:24:41.896Z,83.8
2018-10-02T10:25:23.672Z,83.13
2018-10-02T10:26:03.271Z,83.04
2018-10-02T10:26:44.217Z,81.89
2018-10-02T10:27:25.096Z,83.13
2018-10-02T10:28:05.341Z,82.08
2018-10-02T10:28:46.973Z,81.89
2018-10-02T11:08:12.025Z,83.17
2018-10-02T11:08:53.086Z,82.41
2018-10-02T11:09:33.151Z,81.84
2018-10-02T11:10:13.811Z,81.84
2018-10-02T11:10:54.879Z,81.36
2018-10-02T11:11:35.621Z,82.56
2018-10-02T11:12:16.083Z,82.84
2018-10-02T11:12:56.816Z,83.13
2018-10-02T11:13:38.027Z,83.23
2018-10-02T11:14:18.917Z,83.8
2018-10-02T11:16:17.682Z,83.08
2018-10-02T11:17:10.462Z,82.03
2018-10-02T11:18:05.210Z,81.84
2018-10-02T11:19:01.376Z,81.84
2018-10-02T11:19:52.950Z,81.45
2018-10-02T11:20:33.574Z,81.26
2018-10-02T11:21:14.837Z,81.45
2018-10-02T11:21:55.520Z,81.16
2018-10-02T11:22:36.426Z,80.88
2018-10-02T11:23:17.108Z,81.26
2018-10-02T11:23:58.847Z,80.88
2018-10-02T11:24:39.636Z,80.59
2018-10-02T11:25:21.371Z,80.3
2018-10-02T11:26:19.366Z,80.5
2018-10-02T11:26:57.988Z,79.83
2018-10-02T11:27:39.163Z,79.64
2018-10-02T11:28:20.701Z,80.02
2018-10-02T11:29:04.084Z,80.5
2018-10-02T11:29:58.912Z,80.02
2018-10-02T11:31:04.469Z,80.11
2018-10-02T11:32:03.094Z,80.63
2018-10-02T11:34:26.912Z,80.44
2018-10-02T11:36:34.323Z,80.54
2018-10-02T11:37:36.281Z,81.02
2018-10-02T11:38:38.824Z,80.63
2018-10-02T11:41:23.632Z,80.44
2018-10-02T11:42:21.366Z,80.25
2018-10-02T11:43:20.595Z,80.63
2018-10-02T11:44:15.326Z,80.92
2018-10-02T11:47:07.491Z,79.72
2018-10-02T11:47:48.798Z,80.1
2018-10-02T11:48:29.818Z,79.72
2018-10-02T11:49:10.807Z,79.87
2018-10-02T11:49:51.324Z,79.24
2018-10-02T11:50:32.432Z,79.24
2018-10-02T11:51:13.999Z,79.24